sensor_id;sensor_type;location;lat;lon;timestamp;pressure;altitude;pressure_sealevel;temperature;humidity
29907;BME280;16776;50.958;10.994;2022-08-05T00:02:18;98133.59;;;24.48;82.76
29907;BME280;16776;50.958;10.994;2022-08-05T00:04:47;98132.47;;;24.51;82.43
29907;BME280;16776;50.958;10.994;2022-08-05T00:07:14;98137.75;;;24.41;83.02
29907;BME280;16776;50.958;10.994;2022-08-05T00:09:43;98135.53;;;24.36;82.99
29907;BME280;16776;50.958;10.994;2022-08-05T00:12:10;98126.38;;;24.31;83.02
29907;BME280;16776;50.958;10.994;2022-08-05T00:14:36;98133.56;;;24.29;83.10
29907;BME280;16776;50.958;10.994;2022-08-05T00:17:04;98136.34;;;24.27;83.03
29907;BME280;16776;50.958;10.994;2022-08-05T00:19:31;98132.75;;;24.19;83.20
29907;BME280;16776;50.958;10.994;2022-08-05T00:21:57;98130.53;;;24.14;83.40
29907;BME280;16776;50.958;10.994;2022-08-05T00:24:24;98132.75;;;24.09;83.23
29907;BME280;16776;50.958;10.994;2022-08-05T00:26:50;98136.75;;;24.03;83.48
29907;BME280;16776;50.958;10.994;2022-08-05T00:29:17;98128.56;;;23.87;83.56
29907;BME280;16776;50.958;10.994;2022-08-05T00:31:44;98139.53;;;23.92;83.90
29907;BME280;16776;50.958;10.994;2022-08-05T00:34:12;98140.75;;;23.88;83.55
29907;BME280;16776;50.958;10.994;2022-08-05T00:36:38;98154.56;;;23.81;84.00
29907;BME280;16776;50.958;10.994;2022-08-05T00:39:05;98149.72;;;23.76;83.99
29907;BME280;16776;50.958;10.994;2022-08-05T00:41:34;98148.31;;;23.72;84.07
29907;BME280;16776;50.958;10.994;2022-08-05T00:44:01;98148.44;;;23.70;84.14
29907;BME280;16776;50.958;10.994;2022-08-05T00:46:28;98143.47;;;23.67;84.42
29907;BME280;16776;50.958;10.994;2022-08-05T00:48:54;98141.81;;;23.66;84.58
29907;BME280;16776;50.958;10.994;2022-08-05T00:51:22;98144.28;;;23.68;84.51
29907;BME280;16776;50.958;10.994;2022-08-05T00:53:49;98138.47;;;23.64;84.89
29907;BME280;16776;50.958;10.994;2022-08-05T00:56:16;98147.06;;;23.66;84.85
29907;BME280;16776;50.958;10.994;2022-08-05T00:58:43;98137.50;;;23.65;85.19
29907;BME280;16776;50.958;10.994;2022-08-05T01:01:11;98138.34;;;23.66;84.73
29907;BME280;16776;50.958;10.994;2022-08-05T01:03:40;98137.50;;;23.65;84.85
29907;BME280;16776;50.958;10.994;2022-08-05T01:06:07;98131.53;;;23.63;85.10
29907;BME280;16776;50.958;10.994;2022-08-05T01:08:35;98128.78;;;23.65;84.76
29907;BME280;16776;50.958;10.994;2022-08-05T01:11:05;98126.16;;;23.65;84.94
29907;BME280;16776;50.958;10.994;2022-08-05T01:13:35;98125.75;;;23.69;83.52
29907;BME280;16776;50.958;10.994;2022-08-05T01:16:07;98125.16;;;23.56;85.16
29907;BME280;16776;50.958;10.994;2022-08-05T01:18:39;98129.31;;;23.59;85.25
29907;BME280;16776;50.958;10.994;2022-08-05T01:21:12;98120.59;;;23.58;85.18
29907;BME280;16776;50.958;10.994;2022-08-05T01:23:59;98125.44;;;23.63;85.10
29907;BME280;16776;50.958;10.994;2022-08-05T01:26:34;98117.28;;;23.56;85.62
29907;BME280;16776;50.958;10.994;2022-08-05T01:29:10;98123.50;;;23.55;85.80
29907;BME280;16776;50.958;10.994;2022-08-05T01:31:44;98127.25;;;23.53;85.90
29907;BME280;16776;50.958;10.994;2022-08-05T01:34:14;98128.44;;;23.49;85.74
29907;BME280;16776;50.958;10.994;2022-08-05T01:36:45;98132.31;;;23.45;85.57
29907;BME280;16776;50.958;10.994;2022-08-05T01:39:14;98132.47;;;23.43;85.63
29907;BME280;16776;50.958;10.994;2022-08-05T01:41:42;98141.47;;;23.41;86.03
29907;BME280;16776;50.958;10.994;2022-08-05T01:44:12;98134.25;;;23.43;85.77
29907;BME280;16776;50.958;10.994;2022-08-05T01:46:40;98130.09;;;23.40;86.07
29907;BME280;16776;50.958;10.994;2022-08-05T01:49:09;98129.97;;;23.42;85.63
29907;BME280;16776;50.958;10.994;2022-08-05T01:51:37;98119.59;;;23.40;85.85
29907;BME280;16776;50.958;10.994;2022-08-05T01:54:07;98119.84;;;23.37;85.47
29907;BME280;16776;50.958;10.994;2022-08-05T01:56:38;98117.88;;;23.29;85.77
29907;BME280;16776;50.958;10.994;2022-08-05T01:59:07;98116.78;;;23.22;86.17
29907;BME280;16776;50.958;10.994;2022-08-05T02:01:36;98117.16;;;23.18;85.76
29907;BME280;16776;50.958;10.994;2022-08-05T02:04:04;98115.31;;;23.09;86.59
29907;BME280;16776;50.958;10.994;2022-08-05T02:06:32;98111.56;;;23.02;86.34
29907;BME280;16776;50.958;10.994;2022-08-05T02:08:59;98117.22;;;22.97;87.01
29907;BME280;16776;50.958;10.994;2022-08-05T02:11:30;98118.16;;;22.96;86.25
29907;BME280;16776;50.958;10.994;2022-08-05T02:14:01;98112.31;;;22.92;86.44
29907;BME280;16776;50.958;10.994;2022-08-05T02:16:33;98119.38;;;22.92;86.80
29907;BME280;16776;50.958;10.994;2022-08-05T02:19:11;98122.94;;;22.91;86.84
29907;BME280;16776;50.958;10.994;2022-08-05T02:21:44;98124.31;;;22.85;87.51
29907;BME280;16776;50.958;10.994;2022-08-05T02:24:17;98130.66;;;22.83;87.35
29907;BME280;16776;50.958;10.994;2022-08-05T02:26:46;98131.75;;;22.80;86.83
29907;BME280;16776;50.958;10.994;2022-08-05T02:29:18;98132.72;;;22.79;87.29
29907;BME280;16776;50.958;10.994;2022-08-05T02:31:46;98134.78;;;22.76;87.22
29907;BME280;16776;50.958;10.994;2022-08-05T02:34:16;98141.69;;;22.77;87.49
29907;BME280;16776;50.958;10.994;2022-08-05T02:36:48;98142.38;;;22.79;87.64
29907;BME280;16776;50.958;10.994;2022-08-05T02:39:19;98152.56;;;22.72;87.79
29907;BME280;16776;50.958;10.994;2022-08-05T02:41:47;98139.72;;;22.69;87.67
29907;BME280;16776;50.958;10.994;2022-08-05T02:44:15;98143.28;;;22.68;87.75
29907;BME280;16776;50.958;10.994;2022-08-05T02:46:44;98139.81;;;22.68;87.70
29907;BME280;16776;50.958;10.994;2022-08-05T02:49:13;98133.19;;;22.64;87.53
29907;BME280;16776;50.958;10.994;2022-08-05T02:51:42;98123.81;;;22.50;87.52
29907;BME280;16776;50.958;10.994;2022-08-05T02:54:10;98139.66;;;22.48;88.06
29907;BME280;16776;50.958;10.994;2022-08-05T02:56:38;98144.47;;;22.43;87.85
29907;BME280;16776;50.958;10.994;2022-08-05T02:59:06;98153.41;;;22.41;87.92
29907;BME280;16776;50.958;10.994;2022-08-05T03:01:33;98149.97;;;22.40;88.14
29907;BME280;16776;50.958;10.994;2022-08-05T03:04:04;98162.84;;;22.43;88.18
29907;BME280;16776;50.958;10.994;2022-08-05T03:06:33;98164.31;;;22.36;87.65
29907;BME280;16776;50.958;10.994;2022-08-05T03:09:02;98178.38;;;22.35;87.55
29907;BME280;16776;50.958;10.994;2022-08-05T03:14:17;98245.56;;;22.16;88.53
29907;BME280;16776;50.958;10.994;2022-08-05T03:16:44;98275.72;;;22.21;88.52
29907;BME280;16776;50.958;10.994;2022-08-05T03:19:10;98281.56;;;22.25;88.92
29907;BME280;16776;50.958;10.994;2022-08-05T03:21:37;98271.06;;;22.25;88.64
29907;BME280;16776;50.958;10.994;2022-08-05T03:24:06;98269.75;;;22.30;88.57
29907;BME280;16776;50.958;10.994;2022-08-05T03:26:33;98284.66;;;22.30;88.98
29907;BME280;16776;50.958;10.994;2022-08-05T03:29:00;98280.97;;;22.32;89.37
29907;BME280;16776;50.958;10.994;2022-08-05T03:31:28;98264.84;;;22.37;89.32
29907;BME280;16776;50.958;10.994;2022-08-05T03:33:55;98283.94;;;22.39;89.52
29907;BME280;16776;50.958;10.994;2022-08-05T03:36:23;98290.69;;;22.41;89.45
29907;BME280;16776;50.958;10.994;2022-08-05T03:38:49;98296.66;;;22.43;89.77
29907;BME280;16776;50.958;10.994;2022-08-05T03:41:17;98301.31;;;22.51;89.75
29907;BME280;16776;50.958;10.994;2022-08-05T03:43:44;98298.44;;;22.54;90.14
29907;BME280;16776;50.958;10.994;2022-08-05T03:46:10;98298.91;;;22.59;89.87
29907;BME280;16776;50.958;10.994;2022-08-05T03:48:37;98302.84;;;22.65;90.34
29907;BME280;16776;50.958;10.994;2022-08-05T03:51:11;98299.22;;;22.77;90.17
29907;BME280;16776;50.958;10.994;2022-08-05T03:53:44;98300.75;;;22.79;89.75
29907;BME280;16776;50.958;10.994;2022-08-05T03:56:23;98308.94;;;22.86;90.13
29907;BME280;16776;50.958;10.994;2022-08-05T03:58:54;98320.03;;;22.89;90.84
29907;BME280;16776;50.958;10.994;2022-08-05T04:01:22;98307.75;;;22.90;90.19
29907;BME280;16776;50.958;10.994;2022-08-05T04:03:51;98307.38;;;22.95;90.52
29907;BME280;16776;50.958;10.994;2022-08-05T04:06:19;98303.41;;;23.00;90.12
29907;BME280;16776;50.958;10.994;2022-08-05T04:08:46;98297.91;;;23.03;90.53
29907;BME280;16776;50.958;10.994;2022-08-05T04:11:13;98293.22;;;23.07;91.07
29907;BME280;16776;50.958;10.994;2022-08-05T04:13:41;98297.25;;;23.11;90.55
29907;BME280;16776;50.958;10.994;2022-08-05T04:16:08;98287.56;;;23.11;91.16
29907;BME280;16776;50.958;10.994;2022-08-05T04:18:35;98277.78;;;23.13;91.36
29907;BME280;16776;50.958;10.994;2022-08-05T04:21:03;98266.22;;;23.16;91.22
29907;BME280;16776;50.958;10.994;2022-08-05T04:23:30;98255.56;;;23.17;91.21
29907;BME280;16776;50.958;10.994;2022-08-05T04:25:58;98252.81;;;23.19;91.25
29907;BME280;16776;50.958;10.994;2022-08-05T04:28:24;98239.56;;;23.20;91.58
29907;BME280;16776;50.958;10.994;2022-08-05T04:30:52;98226.84;;;23.25;91.59
29907;BME280;16776;50.958;10.994;2022-08-05T04:33:19;98219.25;;;23.22;92.09
29907;BME280;16776;50.958;10.994;2022-08-05T04:35:45;98204.16;;;23.24;92.52
29907;BME280;16776;50.958;10.994;2022-08-05T04:38:12;98177.88;;;23.24;92.36
29907;BME280;16776;50.958;10.994;2022-08-05T04:40:39;98180.53;;;23.24;92.41
29907;BME280;16776;50.958;10.994;2022-08-05T04:43:06;98182.31;;;23.24;93.01
29907;BME280;16776;50.958;10.994;2022-08-05T04:45:33;98170.16;;;23.23;92.85
29907;BME280;16776;50.958;10.994;2022-08-05T04:48:05;98164.22;;;23.30;93.17
29907;BME280;16776;50.958;10.994;2022-08-05T04:50:37;98161.47;;;23.32;92.74
29907;BME280;16776;50.958;10.994;2022-08-05T04:53:04;98152.19;;;23.28;93.25
29907;BME280;16776;50.958;10.994;2022-08-05T04:55:31;98149.16;;;23.33;93.35
29907;BME280;16776;50.958;10.994;2022-08-05T04:57:57;98148.91;;;23.36;93.09
29907;BME280;16776;50.958;10.994;2022-08-05T05:00:24;98159.28;;;23.37;93.24
29907;BME280;16776;50.958;10.994;2022-08-05T05:02:51;98198.00;;;23.35;93.38
29907;BME280;16776;50.958;10.994;2022-08-05T05:05:19;98211.00;;;23.37;92.90
29907;BME280;16776;50.958;10.994;2022-08-05T05:07:46;98223.69;;;23.31;93.41
29907;BME280;16776;50.958;10.994;2022-08-05T05:10:12;98243.22;;;23.29;93.26
29907;BME280;16776;50.958;10.994;2022-08-05T05:12:39;98270.56;;;23.26;93.44
29907;BME280;16776;50.958;10.994;2022-08-05T05:15:06;98289.91;;;23.25;93.65
29907;BME280;16776;50.958;10.994;2022-08-05T05:17:37;98311.38;;;23.30;93.79
29907;BME280;16776;50.958;10.994;2022-08-05T05:20:05;98308.31;;;23.25;93.97
29907;BME280;16776;50.958;10.994;2022-08-05T05:22:33;98302.94;;;23.27;93.67
29907;BME280;16776;50.958;10.994;2022-08-05T05:25:00;98307.59;;;23.23;94.31
29907;BME280;16776;50.958;10.994;2022-08-05T05:27:27;98305.75;;;23.14;94.27
29907;BME280;16776;50.958;10.994;2022-08-05T05:29:53;98316.25;;;23.14;93.91
29907;BME280;16776;50.958;10.994;2022-08-05T05:32:20;98320.19;;;23.09;94.32
29907;BME280;16776;50.958;10.994;2022-08-05T05:34:46;98321.53;;;23.03;94.45
29907;BME280;16776;50.958;10.994;2022-08-05T05:37:13;98328.00;;;22.99;94.32
29907;BME280;16776;50.958;10.994;2022-08-05T05:39:41;98333.97;;;23.01;94.74
29907;BME280;16776;50.958;10.994;2022-08-05T05:42:08;98343.63;;;23.01;94.96
29907;BME280;16776;50.958;10.994;2022-08-05T05:44:35;98343.50;;;23.02;95.03
29907;BME280;16776;50.958;10.994;2022-08-05T05:47:01;98352.22;;;23.03;95.52
29907;BME280;16776;50.958;10.994;2022-08-05T05:49:28;98342.84;;;22.89;95.41
29907;BME280;16776;50.958;10.994;2022-08-05T05:51:55;98363.09;;;22.98;95.23
29907;BME280;16776;50.958;10.994;2022-08-05T05:54:21;98355.72;;;22.92;95.82
29907;BME280;16776;50.958;10.994;2022-08-05T05:56:49;98345.47;;;22.89;95.56
29907;BME280;16776;50.958;10.994;2022-08-05T05:59:16;98359.34;;;22.80;96.09
29907;BME280;16776;50.958;10.994;2022-08-05T06:01:42;98360.44;;;22.77;96.28
29907;BME280;16776;50.958;10.994;2022-08-05T06:04:15;98372.34;;;22.81;96.13
29907;BME280;16776;50.958;10.994;2022-08-05T06:06:42;98334.03;;;22.79;93.98
29907;BME280;16776;50.958;10.994;2022-08-05T06:09:09;98343.41;;;22.61;96.39
29907;BME280;16776;50.958;10.994;2022-08-05T06:11:38;98346.88;;;22.61;96.62
29907;BME280;16776;50.958;10.994;2022-08-05T06:14:07;98337.81;;;22.65;96.37
29907;BME280;16776;50.958;10.994;2022-08-05T06:16:34;98337.47;;;22.59;96.33
29907;BME280;16776;50.958;10.994;2022-08-05T06:19:04;98343.53;;;22.59;96.88
29907;BME280;16776;50.958;10.994;2022-08-05T06:21:31;98341.03;;;22.58;96.53
29907;BME280;16776;50.958;10.994;2022-08-05T06:23:57;98337.69;;;22.56;97.01
29907;BME280;16776;50.958;10.994;2022-08-05T06:26:24;98331.50;;;22.57;97.14
29907;BME280;16776;50.958;10.994;2022-08-05T06:28:51;98328.75;;;22.58;97.34
29907;BME280;16776;50.958;10.994;2022-08-05T06:31:19;98328.38;;;22.63;97.21
29907;BME280;16776;50.958;10.994;2022-08-05T06:33:45;98325.88;;;22.61;97.39
29907;BME280;16776;50.958;10.994;2022-08-05T06:36:12;98327.53;;;22.62;97.40
29907;BME280;16776;50.958;10.994;2022-08-05T06:38:41;98326.09;;;22.69;97.62
29907;BME280;16776;50.958;10.994;2022-08-05T06:41:08;98330.72;;;22.66;97.78
29907;BME280;16776;50.958;10.994;2022-08-05T06:43:34;98325.38;;;22.67;97.64
29907;BME280;16776;50.958;10.994;2022-08-05T06:46:04;98326.09;;;22.69;97.26
29907;BME280;16776;50.958;10.994;2022-08-05T06:48:33;98331.91;;;22.73;97.46
29907;BME280;16776;50.958;10.994;2022-08-05T06:51:00;98346.13;;;22.70;97.84
29907;BME280;16776;50.958;10.994;2022-08-05T06:53:28;98346.13;;;22.70;97.73
29907;BME280;16776;50.958;10.994;2022-08-05T06:55:55;98346.81;;;22.72;97.54
29907;BME280;16776;50.958;10.994;2022-08-05T06:58:22;98323.91;;;22.74;98.15
29907;BME280;16776;50.958;10.994;2022-08-05T07:00:49;98322.47;;;22.81;97.99
29907;BME280;16776;50.958;10.994;2022-08-05T07:03:15;98332.22;;;22.90;98.07
29907;BME280;16776;50.958;10.994;2022-08-05T07:05:44;98333.84;;;23.03;98.40
29907;BME280;16776;50.958;10.994;2022-08-05T07:08:10;98337.28;;;23.14;98.66
29907;BME280;16776;50.958;10.994;2022-08-05T07:10:37;98321.13;;;23.19;98.62
29907;BME280;16776;50.958;10.994;2022-08-05T07:13:04;98344.25;;;23.46;97.81
29907;BME280;16776;50.958;10.994;2022-08-05T07:15:48;98374.53;;;23.61;97.99
29907;BME280;16776;50.958;10.994;2022-08-05T07:18:32;98391.06;;;23.73;97.48
29907;BME280;16776;50.958;10.994;2022-08-05T07:21:00;98404.03;;;23.85;97.18
29907;BME280;16776;50.958;10.994;2022-08-05T07:23:27;98398.25;;;23.91;97.13
29907;BME280;16776;50.958;10.994;2022-08-05T07:25:53;98378.59;;;23.95;97.02
29907;BME280;16776;50.958;10.994;2022-08-05T07:28:20;98326.28;;;23.92;96.56
29907;BME280;16776;50.958;10.994;2022-08-05T07:30:49;98355.34;;;24.00;96.66
29907;BME280;16776;50.958;10.994;2022-08-05T07:33:16;98397.19;;;24.03;96.56
29907;BME280;16776;50.958;10.994;2022-08-05T07:35:48;98390.25;;;24.02;96.85
29907;BME280;16776;50.958;10.994;2022-08-05T07:38:16;98389.19;;;24.05;96.97
29907;BME280;16776;50.958;10.994;2022-08-05T07:40:43;98392.19;;;24.00;97.43
29907;BME280;16776;50.958;10.994;2022-08-05T07:43:10;98374.75;;;23.99;97.58
29907;BME280;16776;50.958;10.994;2022-08-05T07:45:38;98362.81;;;23.95;97.91
29907;BME280;16776;50.958;10.994;2022-08-05T07:48:04;98355.56;;;23.88;97.68
29907;BME280;16776;50.958;10.994;2022-08-05T07:50:31;98348.91;;;23.84;97.78
29907;BME280;16776;50.958;10.994;2022-08-05T07:52:57;98366.66;;;23.70;98.38
29907;BME280;16776;50.958;10.994;2022-08-05T07:55:25;98364.00;;;23.61;98.12
29907;BME280;16776;50.958;10.994;2022-08-05T07:57:52;98361.69;;;23.47;98.87
29907;BME280;16776;50.958;10.994;2022-08-05T08:00:19;98358.31;;;23.35;99.01
29907;BME280;16776;50.958;10.994;2022-08-05T08:02:45;98348.66;;;23.24;99.14
29907;BME280;16776;50.958;10.994;2022-08-05T08:05:12;98344.03;;;23.17;99.57
29907;BME280;16776;50.958;10.994;2022-08-05T08:07:38;98354.19;;;23.10;100.00
29907;BME280;16776;50.958;10.994;2022-08-05T08:10:05;98344.91;;;23.06;100.00
29907;BME280;16776;50.958;10.994;2022-08-05T08:12:33;98344.91;;;23.06;100.00
29907;BME280;16776;50.958;10.994;2022-08-05T08:15:00;98346.97;;;23.03;100.00
29907;BME280;16776;50.958;10.994;2022-08-05T08:17:27;98312.09;;;23.01;100.00
29907;BME280;16776;50.958;10.994;2022-08-05T08:19:53;98304.63;;;22.96;100.00
29907;BME280;16776;50.958;10.994;2022-08-05T08:22:24;98303.41;;;23.00;100.00
29907;BME280;16776;50.958;10.994;2022-08-05T08:24:51;98310.09;;;22.93;100.00
29907;BME280;16776;50.958;10.994;2022-08-05T08:27:17;98316.06;;;22.95;100.00
29907;BME280;16776;50.958;10.994;2022-08-05T08:29:45;98321.06;;;22.98;100.00
29907;BME280;16776;50.958;10.994;2022-08-05T08:32:12;98327.31;;;22.97;100.00
29907;BME280;16776;50.958;10.994;2022-08-05T08:34:38;98330.38;;;23.02;100.00
29907;BME280;16776;50.958;10.994;2022-08-05T08:37:05;98322.81;;;23.09;100.00
29907;BME280;16776;50.958;10.994;2022-08-05T08:39:32;98323.03;;;23.17;100.00
29907;BME280;16776;50.958;10.994;2022-08-05T08:41:58;98331.72;;;23.28;100.00
29907;BME280;16776;50.958;10.994;2022-08-05T08:44:28;98339.50;;;23.40;100.00
29907;BME280;16776;50.958;10.994;2022-08-05T08:46:56;98338.03;;;23.47;100.00
29907;BME280;16776;50.958;10.994;2022-08-05T08:49:24;98333.34;;;23.50;100.00
29907;BME280;16776;50.958;10.994;2022-08-05T08:51:57;98335.75;;;23.63;100.00
29907;BME280;16776;50.958;10.994;2022-08-05T08:54:24;98334.09;;;23.62;100.00
29907;BME280;16776;50.958;10.994;2022-08-05T08:56:51;98349.50;;;23.66;100.00
29907;BME280;16776;50.958;10.994;2022-08-05T08:59:18;98362.38;;;23.69;100.00
29907;BME280;16776;50.958;10.994;2022-08-05T09:01:45;98355.06;;;23.73;100.00
29907;BME280;16776;50.958;10.994;2022-08-05T09:04:14;98357.22;;;23.79;100.00
29907;BME280;16776;50.958;10.994;2022-08-05T09:06:41;98354.72;;;23.78;100.00
29907;BME280;16776;50.958;10.994;2022-08-05T09:09:08;98355.97;;;23.83;100.00
29907;BME280;16776;50.958;10.994;2022-08-05T09:11:34;98374.69;;;23.90;100.00
29907;BME280;16776;50.958;10.994;2022-08-05T09:14:02;98374.56;;;23.91;100.00
29907;BME280;16776;50.958;10.994;2022-08-05T09:16:29;98375.13;;;23.95;100.00
29907;BME280;16776;50.958;10.994;2022-08-05T09:18:56;98355.34;;;24.00;100.00
29907;BME280;16776;50.958;10.994;2022-08-05T09:21:24;98363.84;;;24.14;100.00
29907;BME280;16776;50.958;10.994;2022-08-05T09:24:02;98362.16;;;24.33;100.00
29907;BME280;16776;50.958;10.994;2022-08-05T09:26:30;98364.41;;;24.38;100.00
29907;BME280;16776;50.958;10.994;2022-08-05T09:28:59;98353.34;;;24.54;99.86
29907;BME280;16776;50.958;10.994;2022-08-05T09:31:29;98348.09;;;24.73;100.00
29907;BME280;16776;50.958;10.994;2022-08-05T09:33:57;98356.63;;;24.96;100.00
29907;BME280;16776;50.958;10.994;2022-08-05T09:36:39;98358.13;;;25.27;99.22
29907;BME280;16776;50.958;10.994;2022-08-05T09:39:08;98339.38;;;25.40;98.95
29907;BME280;16776;50.958;10.994;2022-08-05T09:41:53;98344.88;;;25.75;98.38
29907;BME280;16776;50.958;10.994;2022-08-05T09:44:32;98317.63;;;25.84;97.68
29907;BME280;16776;50.958;10.994;2022-08-05T09:47:07;98335.72;;;26.16;96.90
29907;BME280;16776;50.958;10.994;2022-08-05T09:49:33;98338.16;;;26.27;96.65
29907;BME280;16776;50.958;10.994;2022-08-05T09:52:15;98332.53;;;26.58;96.84
29907;BME280;16776;50.958;10.994;2022-08-05T09:54:51;98331.91;;;26.73;96.33
29907;BME280;16776;50.958;10.994;2022-08-05T09:57:28;98339.97;;;26.90;95.10
29907;BME280;16776;50.958;10.994;2022-08-05T09:59:56;98355.41;;;26.94;95.21
29907;BME280;16776;50.958;10.994;2022-08-05T10:02:34;98313.41;;;26.91;95.44
29907;BME280;16776;50.958;10.994;2022-08-05T10:05:06;98341.25;;;27.21;95.12
29907;BME280;16776;50.958;10.994;2022-08-05T10:07:52;98339.41;;;27.39;95.11
29907;BME280;16776;50.958;10.994;2022-08-05T10:10:23;98340.41;;;27.38;94.08
29907;BME280;16776;50.958;10.994;2022-08-05T10:12:51;98342.88;;;27.40;94.50
29907;BME280;16776;50.958;10.994;2022-08-05T10:15:20;98337.31;;;27.43;93.93
29907;BME280;16776;50.958;10.994;2022-08-05T10:18:12;98326.16;;;27.57;94.26
29907;BME280;16776;50.958;10.994;2022-08-05T10:20:42;98322.47;;;27.50;94.83
29907;BME280;16776;50.958;10.994;2022-08-05T10:23:11;98326.16;;;27.57;94.92
29907;BME280;16776;50.958;10.994;2022-08-05T10:25:39;98326.50;;;27.62;94.83
29907;BME280;16776;50.958;10.994;2022-08-05T10:28:06;98322.66;;;27.74;94.97
29907;BME280;16776;50.958;10.994;2022-08-05T10:30:33;98304.81;;;27.76;95.00
29907;BME280;16776;50.958;10.994;2022-08-05T10:33:01;98315.88;;;28.14;94.05
29907;BME280;16776;50.958;10.994;2022-08-05T10:35:28;98302.75;;;28.38;94.06
29907;BME280;16776;50.958;10.994;2022-08-05T10:37:54;98303.97;;;28.60;92.44
29907;BME280;16776;50.958;10.994;2022-08-05T10:40:30;98306.16;;;28.80;92.83
29907;BME280;16776;50.958;10.994;2022-08-05T10:43:03;98308.81;;;28.89;92.39
29907;BME280;16776;50.958;10.994;2022-08-05T10:45:34;98310.16;;;28.93;92.02
29907;BME280;16776;50.958;10.994;2022-08-05T10:48:31;98315.59;;;29.07;91.68
29907;BME280;16776;50.958;10.994;2022-08-05T10:51:03;98308.47;;;29.08;91.14
29907;BME280;16776;50.958;10.994;2022-08-05T10:53:36;98299.03;;;29.13;90.17
29907;BME280;16776;50.958;10.994;2022-08-05T10:56:05;98307.69;;;29.24;90.19
29907;BME280;16776;50.958;10.994;2022-08-05T10:58:35;98304.19;;;29.31;90.20
29907;BME280;16776;50.958;10.994;2022-08-05T11:01:13;98298.84;;;29.39;90.53
29907;BME280;16776;50.958;10.994;2022-08-05T11:04:01;98313.41;;;29.76;90.54
29907;BME280;16776;50.958;10.994;2022-08-05T11:06:27;98302.13;;;29.82;88.93
29907;BME280;16776;50.958;10.994;2022-08-05T11:09:17;98307.63;;;30.11;90.40
29907;BME280;16776;50.958;10.994;2022-08-05T11:11:47;98315.25;;;30.14;88.14
29907;BME280;16776;50.958;10.994;2022-08-05T11:14:22;98286.03;;;30.14;87.74
29907;BME280;16776;50.958;10.994;2022-08-05T11:19:49;98294.66;;;30.24;88.00
29907;BME280;16776;50.958;10.994;2022-08-05T11:22:37;98292.53;;;30.43;87.89
29907;BME280;16776;50.958;10.994;2022-08-05T11:25:25;98306.13;;;30.48;88.21
29907;BME280;16776;50.958;10.994;2022-08-05T11:27:54;98316.16;;;30.37;87.08
29907;BME280;16776;50.958;10.994;2022-08-05T11:30:20;98313.84;;;30.34;86.63
29907;BME280;16776;50.958;10.994;2022-08-05T11:32:47;98326.78;;;30.37;87.66
29907;BME280;16776;50.958;10.994;2022-08-05T11:38:12;98332.22;;;30.44;88.08
29907;BME280;16776;50.958;10.994;2022-08-05T11:40:56;98328.00;;;30.58;87.62
29907;BME280;16776;50.958;10.994;2022-08-05T11:43:24;98331.53;;;30.50;87.38
29907;BME280;16776;50.958;10.994;2022-08-05T11:45:52;98339.84;;;30.47;87.20
29907;BME280;16776;50.958;10.994;2022-08-05T11:48:18;98343.03;;;30.43;87.70
29907;BME280;16776;50.958;10.994;2022-08-05T11:50:46;98351.53;;;30.38;87.84
29907;BME280;16776;50.958;10.994;2022-08-05T11:53:13;98349.41;;;30.33;87.33
29907;BME280;16776;50.958;10.994;2022-08-05T11:55:52;98354.50;;;30.43;87.94
29907;BME280;16776;50.958;10.994;2022-08-05T11:58:27;98353.00;;;30.41;87.01
29907;BME280;16776;50.958;10.994;2022-08-05T12:01:00;98347.69;;;30.41;87.41
29907;BME280;16776;50.958;10.994;2022-08-05T12:03:27;98345.25;;;30.31;86.96
29907;BME280;16776;50.958;10.994;2022-08-05T12:05:57;98338.59;;;30.35;86.94
29907;BME280;16776;50.958;10.994;2022-08-05T12:08:24;98351.09;;;30.26;87.51
29907;BME280;16776;50.958;10.994;2022-08-05T12:10:52;98347.78;;;30.24;87.14
29907;BME280;16776;50.958;10.994;2022-08-05T12:13:22;98352.09;;;30.17;86.49
29907;BME280;16776;50.958;10.994;2022-08-05T12:15:50;98356.09;;;30.13;87.24
29907;BME280;16776;50.958;10.994;2022-08-05T12:18:19;98360.44;;;30.06;86.70
29907;BME280;16776;50.958;10.994;2022-08-05T12:20:52;98360.28;;;29.99;86.48
29907;BME280;16776;50.958;10.994;2022-08-05T12:23:19;98365.47;;;29.93;86.87
29907;BME280;16776;50.958;10.994;2022-08-05T12:25:50;98368.28;;;29.91;86.67
29907;BME280;16776;50.958;10.994;2022-08-05T12:28:31;98371.09;;;29.90;86.35
29907;BME280;16776;50.958;10.994;2022-08-05T12:30:59;98365.84;;;29.74;86.90
29907;BME280;16776;50.958;10.994;2022-08-05T12:33:25;98362.50;;;29.64;86.79
29907;BME280;16776;50.958;10.994;2022-08-05T12:35:53;98371.78;;;29.59;87.11
29907;BME280;16776;50.958;10.994;2022-08-05T12:38:21;98358.53;;;29.51;86.78
29907;BME280;16776;50.958;10.994;2022-08-05T12:40:48;98371.47;;;29.46;86.93
29907;BME280;16776;50.958;10.994;2022-08-05T12:43:18;98370.34;;;29.41;86.76
29907;BME280;16776;50.958;10.994;2022-08-05T12:45:50;98367.50;;;29.42;86.99
29907;BME280;16776;50.958;10.994;2022-08-05T12:48:21;98373.13;;;29.39;87.16
29907;BME280;16776;50.958;10.994;2022-08-05T12:51:08;98371.31;;;29.40;86.87
29907;BME280;16776;50.958;10.994;2022-08-05T12:53:41;98368.50;;;29.25;87.36
29907;BME280;16776;50.958;10.994;2022-08-05T12:56:16;98372.81;;;29.26;87.18
29907;BME280;16776;50.958;10.994;2022-08-05T12:58:43;98383.41;;;29.18;87.27
29907;BME280;16776;50.958;10.994;2022-08-05T13:01:14;98390.91;;;29.23;87.32
29907;BME280;16776;50.958;10.994;2022-08-05T13:03:45;98382.59;;;29.26;87.74
29907;BME280;16776;50.958;10.994;2022-08-05T13:06:13;98373.00;;;29.25;87.84
29907;BME280;16776;50.958;10.994;2022-08-05T13:08:41;98375.47;;;29.26;88.12